Portada
METAR-TAF:

METAR-TAF

Aeroports :

Aeroport de Londres-Heathrow

Londres-Heathrow, Anglaterra

latitud: 51-29N, longitud: 000-27W, altitud: 24 m

Observació

L'informe es va fer fa 27 minuts, a les 15:50 UTC
Vent 6 kt del Nord-Est, variant entre Nord i Est
Temperatura 25°C
Humitat 36%
Pressió 1034 hPa
Visibilitat 10 km o més

METAR: EGLL 271550Z AUTO 04006KT 360V080 9999 NCD 25/09 Q1034 NOSIG

Hora: 17:17 (16:17 UTC)

Pronòstic

L'informe es va fer fa 5 hores i 16 minuts, a les 11:01 UTC
Pronòstic vàlid del 27 a les 12 UTC al 28 a les 18 UTC
Vent 3 kt amb direcció variable
Visibilitat 10 km o més
sense núvols per sota de 1500 mi sense presència de cumulonimbus.
Evolucionant progressivament
l' 27 a les 21 UTC al 27 a les 24 UTC
Vent 10 kt del Est

TAF: EGLL 271101Z 2712/2818 VRB03KT CAVOK BECMG 2721/2724 08010KT

Observacions i pronòstics meteorològics de més de 4000 aeroports (METAR i TAF).

Les estacions disponibles són els punts grocs i vermells al mapa.

Posi el ratolí al punt desitjat per veure el nom de l'estació.

Feu clic per veure les observacions i els pronòstics meteorològics.

Per canviar el mapa: feu clic els botons verds amb una creu de color negre per apropar; al botó verd amb un guió per allunyar la imatge; o en les fletxes verdes per a mapes adjacents.


METAR-TAF: